sensor_id;sensor_type;location;lat;lon;timestamp;P1;durP1;ratioP1;P2;durP2;ratioP2
77278;SDS011;66332;50.436;15.378;2023-03-23T05:03:22;11.38;;;6.28;;
77278;SDS011;66332;50.436;15.378;2023-03-23T05:08:03;12.98;;;5.90;;
77278;SDS011;66332;50.436;15.378;2023-03-23T05:12:45;11.23;;;5.50;;
77278;SDS011;66332;50.436;15.378;2023-03-23T05:17:26;12.50;;;6.32;;
77278;SDS011;66332;50.436;15.378;2023-03-23T05:22:07;12.07;;;6.15;;
77278;SDS011;66332;50.436;15.378;2023-03-23T05:26:48;12.43;;;6.43;;
77278;SDS011;66332;50.436;15.378;2023-03-23T05:31:32;11.05;;;6.13;;
77278;SDS011;66332;50.436;15.378;2023-03-23T05:36:13;12.70;;;6.25;;
77278;SDS011;66332;50.436;15.378;2023-03-23T05:40:57;11.55;;;6.60;;
77278;SDS011;66332;50.436;15.378;2023-03-23T05:45:41;11.38;;;6.50;;
77278;SDS011;66332;50.436;15.378;2023-03-23T05:50:22;11.75;;;6.43;;
77278;SDS011;66332;50.436;15.378;2023-03-23T05:55:03;12.38;;;6.65;;
77278;SDS011;66332;50.436;15.378;2023-03-23T05:59:44;11.20;;;6.00;;
77278;SDS011;66332;50.436;15.378;2023-03-23T06:04:25;11.77;;;5.70;;
77278;SDS011;66332;50.436;15.378;2023-03-23T06:09:08;11.55;;;5.85;;
77278;SDS011;66332;50.436;15.378;2023-03-23T06:13:50;9.90;;;5.20;;
77278;SDS011;66332;50.436;15.378;2023-03-23T06:18:31;9.30;;;5.07;;
77278;SDS011;66332;50.436;15.378;2023-03-23T06:23:14;10.68;;;5.75;;
77278;SDS011;66332;50.436;15.378;2023-03-23T06:27:55;10.77;;;5.30;;
77278;SDS011;66332;50.436;15.378;2023-03-23T06:32:36;11.90;;;5.90;;
77278;SDS011;66332;50.436;15.378;2023-03-23T06:37:18;10.35;;;5.72;;
77278;SDS011;66332;50.436;15.378;2023-03-23T06:41:59;13.77;;;7.63;;
77278;SDS011;66332;50.436;15.378;2023-03-23T06:46:40;13.05;;;7.65;;
77278;SDS011;66332;50.436;15.378;2023-03-23T06:51:22;12.70;;;6.82;;
77278;SDS011;66332;50.436;15.378;2023-03-23T06:56:03;14.30;;;7.00;;
77278;SDS011;66332;50.436;15.378;2023-03-23T07:00:44;12.02;;;6.95;;
77278;SDS011;66332;50.436;15.378;2023-03-23T07:05:26;11.90;;;6.55;;
77278;SDS011;66332;50.436;15.378;2023-03-23T07:14:52;13.40;;;6.90;;
77278;SDS011;66332;50.436;15.378;2023-03-23T07:19:33;12.48;;;6.95;;
77278;SDS011;66332;50.436;15.378;2023-03-23T07:24:14;15.50;;;7.38;;
77278;SDS011;66332;50.436;15.378;2023-03-23T07:28:55;12.52;;;7.18;;
77278;SDS011;66332;50.436;15.378;2023-03-23T07:33:36;14.20;;;7.88;;
77278;SDS011;66332;50.436;15.378;2023-03-23T07:38:17;14.70;;;7.57;;
77278;SDS011;66332;50.436;15.378;2023-03-23T07:42:59;13.68;;;7.75;;
77278;SDS011;66332;50.436;15.378;2023-03-23T07:47:42;12.40;;;7.07;;
77278;SDS011;66332;50.436;15.378;2023-03-23T07:52:22;15.07;;;7.10;;
77278;SDS011;66332;50.436;15.378;2023-03-23T07:57:04;12.02;;;7.40;;
77278;SDS011;66332;50.436;15.378;2023-03-23T08:01:46;13.18;;;7.10;;
77278;SDS011;66332;50.436;15.378;2023-03-23T08:06:27;14.95;;;7.35;;
77278;SDS011;66332;50.436;15.378;2023-03-23T08:11:08;15.32;;;7.78;;
77278;SDS011;66332;50.436;15.378;2023-03-23T08:15:49;14.82;;;7.80;;
77278;SDS011;66332;50.436;15.378;2023-03-23T08:20:31;14.10;;;6.85;;
77278;SDS011;66332;50.436;15.378;2023-03-23T08:25:13;15.45;;;7.03;;
77278;SDS011;66332;50.436;15.378;2023-03-23T08:29:57;11.90;;;7.45;;
77278;SDS011;66332;50.436;15.378;2023-03-23T08:34:39;16.55;;;6.72;;
77278;SDS011;66332;50.436;15.378;2023-03-23T08:44:00;12.25;;;7.28;;
77278;SDS011;66332;50.436;15.378;2023-03-23T08:48:42;12.43;;;7.30;;
77278;SDS011;66332;50.436;15.378;2023-03-23T08:53:24;12.63;;;7.10;;
77278;SDS011;66332;50.436;15.378;2023-03-23T09:02:49;12.95;;;6.85;;
77278;SDS011;66332;50.436;15.378;2023-03-23T09:07:32;12.23;;;6.88;;
77278;SDS011;66332;50.436;15.378;2023-03-23T09:12:13;13.18;;;6.97;;
77278;SDS011;66332;50.436;15.378;2023-03-23T09:16:54;13.15;;;6.85;;
77278;SDS011;66332;50.436;15.378;2023-03-23T09:21:35;14.23;;;6.75;;
77278;SDS011;66332;50.436;15.378;2023-03-23T09:26:16;12.18;;;6.63;;
77278;SDS011;66332;50.436;15.378;2023-03-23T09:30:57;12.55;;;6.53;;
77278;SDS011;66332;50.436;15.378;2023-03-23T09:35:39;12.20;;;7.05;;
77278;SDS011;66332;50.436;15.378;2023-03-23T09:40:23;13.85;;;6.40;;
77278;SDS011;66332;50.436;15.378;2023-03-23T09:50:16;12.05;;;6.35;;
77278;SDS011;66332;50.436;15.378;2023-03-23T09:54:59;12.05;;;6.80;;
77278;SDS011;66332;50.436;15.378;2023-03-23T09:59:49;11.98;;;6.68;;
77278;SDS011;66332;50.436;15.378;2023-03-23T10:04:47;13.27;;;6.45;;
77278;SDS011;66332;50.436;15.378;2023-03-23T10:09:30;11.65;;;6.25;;
77278;SDS011;66332;50.436;15.378;2023-03-23T10:23:46;11.15;;;5.88;;
77278;SDS011;66332;50.436;15.378;2023-03-23T10:28:37;11.35;;;5.30;;
77278;SDS011;66332;50.436;15.378;2023-03-23T10:33:22;12.88;;;6.40;;
77278;SDS011;66332;50.436;15.378;2023-03-23T10:38:17;10.80;;;5.97;;
77278;SDS011;66332;50.436;15.378;2023-03-23T10:43:06;14.35;;;8.00;;
77278;SDS011;66332;50.436;15.378;2023-03-23T10:48:11;11.23;;;7.05;;
77278;SDS011;66332;50.436;15.378;2023-03-23T10:52:54;10.98;;;6.57;;
77278;SDS011;66332;50.436;15.378;2023-03-23T10:57:38;9.75;;;6.20;;
77278;SDS011;66332;50.436;15.378;2023-03-23T11:02:21;10.25;;;6.07;;
77278;SDS011;66332;50.436;15.378;2023-03-23T11:07:04;12.27;;;5.93;;
77278;SDS011;66332;50.436;15.378;2023-03-23T11:12:01;9.38;;;5.50;;
77278;SDS011;66332;50.436;15.378;2023-03-23T11:16:44;10.73;;;5.90;;
77278;SDS011;66332;50.436;15.378;2023-03-23T11:21:35;11.25;;;6.13;;
77278;SDS011;66332;50.436;15.378;2023-03-23T11:26:20;9.60;;;5.30;;
77278;SDS011;66332;50.436;15.378;2023-03-23T11:31:05;9.02;;;4.40;;
77278;SDS011;66332;50.436;15.378;2023-03-23T11:35:47;8.55;;;3.60;;
77278;SDS011;66332;50.436;15.378;2023-03-23T11:40:31;7.00;;;2.97;;
77278;SDS011;66332;50.436;15.378;2023-03-23T11:45:15;8.27;;;3.78;;
77278;SDS011;66332;50.436;15.378;2023-03-23T11:54:50;6.13;;;2.90;;
77278;SDS011;66332;50.436;15.378;2023-03-23T12:00:22;7.22;;;2.95;;
77278;SDS011;66332;50.436;15.378;2023-03-23T12:06:29;6.63;;;2.30;;
77278;SDS011;66332;50.436;15.378;2023-03-23T12:17:19;5.20;;;2.22;;
77278;SDS011;66332;50.436;15.378;2023-03-23T12:32:06;6.72;;;2.25;;
77278;SDS011;66332;50.436;15.378;2023-03-23T12:52:14;6.45;;;1.83;;
77278;SDS011;66332;50.436;15.378;2023-03-23T13:02:29;6.25;;;2.65;;
77278;SDS011;66332;50.436;15.378;2023-03-23T13:07:26;6.10;;;2.58;;
77278;SDS011;66332;50.436;15.378;2023-03-23T13:12:11;7.65;;;3.20;;
77278;SDS011;66332;50.436;15.378;2023-03-23T13:26:48;8.43;;;3.00;;
77278;SDS011;66332;50.436;15.378;2023-03-23T13:31:31;9.95;;;3.40;;
77278;SDS011;66332;50.436;15.378;2023-03-23T13:36:14;9.13;;;3.55;;
77278;SDS011;66332;50.436;15.378;2023-03-23T13:40:57;8.88;;;4.13;;
77278;SDS011;66332;50.436;15.378;2023-03-23T13:45:44;6.88;;;3.10;;
77278;SDS011;66332;50.436;15.378;2023-03-23T13:50:27;9.00;;;3.85;;
77278;SDS011;66332;50.436;15.378;2023-03-23T13:59:58;8.57;;;3.22;;
77278;SDS011;66332;50.436;15.378;2023-03-23T14:04:49;8.07;;;3.47;;
77278;SDS011;66332;50.436;15.378;2023-03-23T14:09:37;9.20;;;3.70;;
77278;SDS011;66332;50.436;15.378;2023-03-23T14:14:29;8.13;;;3.55;;
77278;SDS011;66332;50.436;15.378;2023-03-23T14:19:21;8.85;;;3.80;;
77278;SDS011;66332;50.436;15.378;2023-03-23T14:24:19;9.52;;;3.90;;
77278;SDS011;66332;50.436;15.378;2023-03-23T14:29:11;8.45;;;3.63;;
77278;SDS011;66332;50.436;15.378;2023-03-23T14:33:55;10.80;;;4.55;;
77278;SDS011;66332;50.436;15.378;2023-03-23T14:38:37;13.43;;;5.45;;
77278;SDS011;66332;50.436;15.378;2023-03-23T14:43:19;11.27;;;5.00;;
77278;SDS011;66332;50.436;15.378;2023-03-23T14:48:02;10.85;;;5.32;;
77278;SDS011;66332;50.436;15.378;2023-03-23T14:52:44;9.55;;;4.63;;
77278;SDS011;66332;50.436;15.378;2023-03-23T14:57:28;11.25;;;4.78;;
77278;SDS011;66332;50.436;15.378;2023-03-23T15:02:32;10.00;;;4.70;;
77278;SDS011;66332;50.436;15.378;2023-03-23T15:07:14;8.95;;;4.20;;
77278;SDS011;66332;50.436;15.378;2023-03-23T15:12:01;9.32;;;4.75;;
77278;SDS011;66332;50.436;15.378;2023-03-23T15:21:31;7.65;;;3.90;;
77278;SDS011;66332;50.436;15.378;2023-03-23T15:26:34;11.45;;;5.28;;
77278;SDS011;66332;50.436;15.378;2023-03-23T15:31:23;9.52;;;4.63;;
77278;SDS011;66332;50.436;15.378;2023-03-23T15:36:06;6.70;;;3.58;;
77278;SDS011;66332;50.436;15.378;2023-03-23T15:40:52;9.57;;;3.75;;
77278;SDS011;66332;50.436;15.378;2023-03-23T15:45:35;7.00;;;3.10;;
77278;SDS011;66332;50.436;15.378;2023-03-23T15:50:17;7.55;;;3.50;;
77278;SDS011;66332;50.436;15.378;2023-03-23T15:55:00;7.38;;;3.42;;
77278;SDS011;66332;50.436;15.378;2023-03-23T15:59:41;8.75;;;3.90;;
77278;SDS011;66332;50.436;15.378;2023-03-23T16:04:22;8.20;;;4.13;;
77278;SDS011;66332;50.436;15.378;2023-03-23T16:09:03;7.45;;;3.28;;
77278;SDS011;66332;50.436;15.378;2023-03-23T16:13:45;7.20;;;3.58;;
77278;SDS011;66332;50.436;15.378;2023-03-23T16:18:27;10.27;;;4.40;;
77278;SDS011;66332;50.436;15.378;2023-03-23T16:23:09;12.07;;;5.22;;
77278;SDS011;66332;50.436;15.378;2023-03-23T16:28:09;12.32;;;7.55;;
77278;SDS011;66332;50.436;15.378;2023-03-23T16:33:07;10.80;;;6.00;;
77278;SDS011;66332;50.436;15.378;2023-03-23T16:37:49;11.88;;;6.10;;
77278;SDS011;66332;50.436;15.378;2023-03-23T16:42:32;11.25;;;6.45;;
77278;SDS011;66332;50.436;15.378;2023-03-23T16:47:19;14.38;;;6.95;;
77278;SDS011;66332;50.436;15.378;2023-03-23T16:52:05;14.00;;;6.55;;
77278;SDS011;66332;50.436;15.378;2023-03-23T16:56:55;10.18;;;5.65;;
77278;SDS011;66332;50.436;15.378;2023-03-23T17:01:36;10.93;;;6.05;;
77278;SDS011;66332;50.436;15.378;2023-03-23T17:06:28;10.65;;;5.07;;
77278;SDS011;66332;50.436;15.378;2023-03-23T17:11:55;13.05;;;5.78;;
77278;SDS011;66332;50.436;15.378;2023-03-23T17:16:53;13.40;;;7.22;;
77278;SDS011;66332;50.436;15.378;2023-03-23T17:21:36;11.90;;;5.32;;
77278;SDS011;66332;50.436;15.378;2023-03-23T17:26:23;9.98;;;5.57;;
77278;SDS011;66332;50.436;15.378;2023-03-23T17:31:04;11.38;;;6.10;;
77278;SDS011;66332;50.436;15.378;2023-03-23T17:40:47;10.10;;;4.13;;
77278;SDS011;66332;50.436;15.378;2023-03-23T17:46:09;8.82;;;4.60;;
77278;SDS011;66332;50.436;15.378;2023-03-23T17:50:54;7.38;;;3.60;;
77278;SDS011;66332;50.436;15.378;2023-03-23T17:56:24;6.15;;;2.88;;
77278;SDS011;66332;50.436;15.378;2023-03-23T18:13:09;7.35;;;3.47;;
77278;SDS011;66332;50.436;15.378;2023-03-23T18:18:10;9.25;;;3.60;;
77278;SDS011;66332;50.436;15.378;2023-03-23T18:22:51;9.25;;;4.55;;
77278;SDS011;66332;50.436;15.378;2023-03-23T18:27:36;7.32;;;3.75;;
77278;SDS011;66332;50.436;15.378;2023-03-23T18:32:38;6.13;;;3.00;;
77278;SDS011;66332;50.436;15.378;2023-03-23T18:37:26;5.95;;;2.80;;
77278;SDS011;66332;50.436;15.378;2023-03-23T18:42:08;6.57;;;2.90;;
77278;SDS011;66332;50.436;15.378;2023-03-23T18:47:05;6.65;;;2.90;;
77278;SDS011;66332;50.436;15.378;2023-03-23T18:52:21;8.30;;;3.00;;
77278;SDS011;66332;50.436;15.378;2023-03-23T18:57:18;6.75;;;3.10;;
77278;SDS011;66332;50.436;15.378;2023-03-23T19:02:27;6.57;;;2.97;;
77278;SDS011;66332;50.436;15.378;2023-03-23T19:07:09;7.50;;;3.42;;
77278;SDS011;66332;50.436;15.378;2023-03-23T19:17:40;6.97;;;3.10;;
77278;SDS011;66332;50.436;15.378;2023-03-23T19:22:26;8.38;;;3.00;;
77278;SDS011;66332;50.436;15.378;2023-03-23T19:27:08;6.75;;;2.97;;
77278;SDS011;66332;50.436;15.378;2023-03-23T19:31:49;6.43;;;2.90;;
77278;SDS011;66332;50.436;15.378;2023-03-23T19:36:31;7.13;;;3.10;;
77278;SDS011;66332;50.436;15.378;2023-03-23T19:41:16;7.70;;;2.90;;
77278;SDS011;66332;50.436;15.378;2023-03-23T19:46:04;7.30;;;2.72;;
77278;SDS011;66332;50.436;15.378;2023-03-23T19:50:49;6.25;;;2.95;;
77278;SDS011;66332;50.436;15.378;2023-03-23T19:55:32;6.35;;;2.67;;
77278;SDS011;66332;50.436;15.378;2023-03-23T20:00:13;7.70;;;3.33;;
77278;SDS011;66332;50.436;15.378;2023-03-23T20:04:57;6.30;;;2.75;;
77278;SDS011;66332;50.436;15.378;2023-03-23T20:10:11;5.63;;;2.58;;
77278;SDS011;66332;50.436;15.378;2023-03-23T20:14:52;6.60;;;2.90;;
77278;SDS011;66332;50.436;15.378;2023-03-23T20:19:50;7.85;;;3.55;;
77278;SDS011;66332;50.436;15.378;2023-03-23T20:24:31;8.13;;;3.47;;
77278;SDS011;66332;50.436;15.378;2023-03-23T20:29:12;8.18;;;3.67;;
77278;SDS011;66332;50.436;15.378;2023-03-23T20:33:55;7.88;;;4.00;;
77278;SDS011;66332;50.436;15.378;2023-03-23T20:38:41;8.43;;;3.33;;
77278;SDS011;66332;50.436;15.378;2023-03-23T20:43:23;7.70;;;3.53;;
77278;SDS011;66332;50.436;15.378;2023-03-23T20:48:08;7.00;;;3.22;;
77278;SDS011;66332;50.436;15.378;2023-03-23T20:52:49;5.80;;;2.70;;
77278;SDS011;66332;50.436;15.378;2023-03-23T20:57:31;6.38;;;3.00;;
77278;SDS011;66332;50.436;15.378;2023-03-23T21:02:14;6.18;;;2.75;;
77278;SDS011;66332;50.436;15.378;2023-03-23T21:06:57;6.55;;;2.95;;
77278;SDS011;66332;50.436;15.378;2023-03-23T21:11:40;6.80;;;2.75;;
77278;SDS011;66332;50.436;15.378;2023-03-23T21:16:22;7.93;;;3.75;;
77278;SDS011;66332;50.436;15.378;2023-03-23T21:21:04;7.60;;;3.60;;
77278;SDS011;66332;50.436;15.378;2023-03-23T21:25:46;8.57;;;3.67;;
77278;SDS011;66332;50.436;15.378;2023-03-23T21:30:28;7.28;;;3.50;;
77278;SDS011;66332;50.436;15.378;2023-03-23T21:35:09;7.85;;;3.72;;
77278;SDS011;66332;50.436;15.378;2023-03-23T21:39:50;8.07;;;3.88;;
77278;SDS011;66332;50.436;15.378;2023-03-23T21:44:32;7.00;;;3.22;;
77278;SDS011;66332;50.436;15.378;2023-03-23T21:49:16;8.15;;;2.85;;
77278;SDS011;66332;50.436;15.378;2023-03-23T21:53:57;7.30;;;3.80;;
77278;SDS011;66332;50.436;15.378;2023-03-23T21:58:38;8.38;;;3.60;;
77278;SDS011;66332;50.436;15.378;2023-03-23T22:03:20;7.40;;;3.30;;
77278;SDS011;66332;50.436;15.378;2023-03-23T22:08:03;6.85;;;3.40;;
77278;SDS011;66332;50.436;15.378;2023-03-23T22:12:44;7.90;;;3.47;;
77278;SDS011;66332;50.436;15.378;2023-03-23T22:17:25;8.38;;;3.78;;
77278;SDS011;66332;50.436;15.378;2023-03-23T22:22:06;9.05;;;4.15;;
77278;SDS011;66332;50.436;15.378;2023-03-23T22:26:47;9.25;;;4.28;;
77278;SDS011;66332;50.436;15.378;2023-03-23T22:31:29;7.63;;;4.10;;
77278;SDS011;66332;50.436;15.378;2023-03-23T22:36:13;7.57;;;3.80;;
77278;SDS011;66332;50.436;15.378;2023-03-23T22:40:56;10.07;;;4.90;;
77278;SDS011;66332;50.436;15.378;2023-03-23T22:45:37;34.28;;;18.13;;
77278;SDS011;66332;50.436;15.378;2023-03-23T22:50:18;29.58;;;16.48;;
